Time;durP1;ratioP1;P1;durP2;ratioP2;P2;SDS_P1;SDS_P2;PMS_P1;PMS_P2;Temp;Humidity;BMP_temperature;BMP_pressure;BME280_temperature;BME280_humidity;BME280_pressure;Samples;Min_cycle;Max_cycle;Signal;HPM_P1;HPM_P2
2021/07/28 00:02:08;;;;;;;15.13;6.82;;;23.00;88.20;;;;;;4985042;28;20049;-58
2021/07/28 00:04:37;;;;;;;18.10;6.95;;;23.00;88.40;;;;;;4986941;28;20114;-58
2021/07/28 00:07:04;;;;;;;15.68;6.68;;;23.00;88.50;;;;;;4983846;28;20069;-58
2021/07/28 00:09:29;;;;;;;16.25;6.32;;;22.90;88.50;;;;;;4985063;28;20034;-58
2021/07/28 00:11:55;;;;;;;20.20;6.60;;;22.90;88.50;;;;;;4986226;28;20490;-58
2021/07/28 00:14:20;;;;;;;13.90;6.95;;;22.90;88.60;;;;;;4985585;28;20081;-58
2021/07/28 00:16:46;;;;;;;15.23;6.78;;;22.90;88.60;;;;;;4985497;28;20022;-58
2021/07/28 00:19:24;;;;;;;16.15;6.47;;;22.90;88.60;;;;;;4986792;28;20096;-58
2021/07/28 00:24:34;;;;;;;13.07;6.18;;;22.80;88.60;;;;;;4985577;28;20338;-59
2021/07/28 00:27:00;;;;;;;13.40;6.35;;;22.80;88.60;;;;;;4982727;28;20034;-58
2021/07/28 00:29:28;;;;;;;15.52;6.63;;;22.80;89.40;;;;;;4985169;28;20034;-58
2021/07/28 00:31:54;;;;;;;20.55;7.13;;;22.80;88.70;;;;;;4984792;28;20080;-59
2021/07/28 00:34:19;;;;;;;15.35;6.03;;;22.70;88.70;;;;;;4984925;28;20036;-59
2021/07/28 00:36:45;;;;;;;9.90;5.90;;;22.80;88.70;;;;;;4984365;28;20034;-58
2021/07/28 00:39:10;;;;;;;11.05;6.40;;;22.70;88.60;;;;;;4985056;28;20208;-58
2021/07/28 00:41:40;;;;;;;16.17;6.95;;;22.70;88.60;;;;;;4984833;28;20046;-58
2021/07/28 00:44:05;;;;;;;16.23;7.20;;;22.70;88.60;;;;;;4984249;28;20113;-59
2021/07/28 00:46:31;;;;;;;10.90;6.40;;;22.70;88.70;;;;;;4984510;28;20037;-59
2021/07/28 00:48:57;;;;;;;13.45;7.38;;;22.60;88.60;;;;;;4985015;28;20065;-58
2021/07/28 00:51:22;;;;;;;10.82;7.00;;;22.60;88.70;;;;;;4981706;28;20062;-59
2021/07/28 00:53:48;;;;;;;11.80;6.45;;;22.60;88.60;;;;;;4984617;28;20049;-59
2021/07/28 00:56:13;;;;;;;8.85;5.90;;;22.60;88.50;;;;;;4983742;28;20674;-58
2021/07/28 00:58:40;;;;;;;14.40;6.55;;;22.60;88.50;;;;;;4985604;28;20437;-58
2021/07/28 01:01:06;;;;;;;12.32;7.35;;;22.60;88.40;;;;;;4985696;28;20073;-58
2021/07/28 01:03:31;;;;;;;11.05;7.40;;;22.50;88.30;;;;;;4983436;28;20032;-58
2021/07/28 01:05:57;;;;;;;8.95;6.60;;;22.50;88.30;;;;;;4983659;28;20026;-58
2021/07/28 01:08:23;;;;;;;11.73;6.28;;;22.50;88.20;;;;;;4983541;28;20037;-58
2021/07/28 01:10:48;;;;;;;10.07;6.35;;;22.50;88.20;;;;;;4982952;28;20023;-59
2021/07/28 01:13:26;;;;;;;6.93;6.05;;;22.50;88.10;;;;;;4984697;28;20038;-58
2021/07/28 01:15:58;;;;;;;10.73;6.38;;;22.50;88.10;;;;;;4986464;28;20391;-58
2021/07/28 01:18:24;;;;;;;9.25;6.28;;;22.50;88.10;;;;;;4982345;28;20038;-58
2021/07/28 01:20:49;;;;;;;8.95;6.22;;;22.50;88.10;;;;;;4982735;28;20120;-58
2021/07/28 01:23:27;;;;;;;9.18;5.97;;;22.40;88.10;;;;;;4985224;28;20038;-59
2021/07/28 01:25:53;;;;;;;8.57;6.25;;;22.40;88.10;;;;;;4982843;28;20529;-58
2021/07/28 01:28:20;;;;;;;7.38;5.53;;;22.40;88.20;;;;;;4985044;28;20073;-58
2021/07/28 01:30:46;;;;;;;11.50;6.10;;;22.20;88.10;;;;;;4984464;28;20027;-58
2021/07/28 01:33:11;;;;;;;12.80;6.22;;;22.40;88.30;;;;;;4982133;28;20044;-58
2021/07/28 01:35:37;;;;;;;8.48;5.95;;;22.30;88.30;;;;;;4984700;28;20034;-58
2021/07/28 01:38:05;;;;;;;9.27;5.93;;;22.30;88.40;;;;;;4982981;28;20764;-58
2021/07/28 01:40:35;;;;;;;18.08;6.30;;;22.30;88.40;;;;;;4980322;28;20439;-58
2021/07/28 01:43:01;;;;;;;6.75;5.13;;;22.30;88.40;;;;;;4980140;28;20386;-58
2021/07/28 01:45:26;;;;;;;12.93;5.85;;;22.30;88.50;;;;;;4979625;28;20043;-58
2021/07/28 01:47:52;;;;;;;9.73;5.97;;;22.30;88.50;;;;;;4980790;28;20038;-58
2021/07/28 01:50:17;;;;;;;10.23;5.72;;;22.30;88.50;;;;;;4982876;28;20080;-58
2021/07/28 01:52:43;;;;;;;6.40;5.80;;;22.20;88.50;;;;;;4979662;28;20470;-58
2021/07/28 01:55:09;;;;;;;6.75;6.05;;;22.20;88.60;;;;;;4981601;28;20030;-58
2021/07/28 01:57:34;;;;;;;7.28;6.55;;;22.20;88.70;;;;;;4981417;28;20506;-59
2021/07/28 02:00:00;;;;;;;13.43;6.93;;;22.20;88.70;;;;;;4979619;28;20049;-59
2021/07/28 02:02:33;;;;;;;10.88;7.05;;;22.20;88.80;;;;;;4981092;28;20509;-59
2021/07/28 02:04:59;;;;;;;8.02;6.65;;;22.20;88.80;;;;;;4979582;28;20249;-58
2021/07/28 02:07:25;;;;;;;10.82;6.45;;;22.20;88.80;;;;;;4981335;28;20540;-58
2021/07/28 02:09:51;;;;;;;7.35;6.10;;;22.10;88.80;;;;;;4982055;28;20038;-58
2021/07/28 02:12:16;;;;;;;6.43;5.82;;;22.20;89.00;;;;;;4982180;28;20358;-58
2021/07/28 02:14:42;;;;;;;7.65;6.13;;;22.10;89.00;;;;;;4982368;28;20033;-59
2021/07/28 02:17:07;;;;;;;11.68;6.20;;;22.10;89.10;;;;;;4983466;28;20034;-58
2021/07/28 02:19:33;;;;;;;6.60;5.88;;;22.10;89.30;;;;;;4983665;28;20114;-58
2021/07/28 02:21:58;;;;;;;14.48;6.38;;;22.10;89.30;;;;;;4982261;28;20441;-58
2021/07/28 02:24:24;;;;;;;7.15;5.68;;;22.10;89.40;;;;;;4997142;28;20581;-58
2021/07/28 02:26:49;;;;;;;6.50;5.90;;;22.10;89.40;;;;;;4981734;28;20042;-58
2021/07/28 02:29:15;;;;;;;9.52;6.05;;;22.10;89.60;;;;;;4982551;28;20053;-58
2021/07/28 02:31:40;;;;;;;8.05;5.88;;;22.00;89.60;;;;;;4983615;28;20114;-58
2021/07/28 02:34:06;;;;;;;7.05;6.30;;;22.00;89.70;;;;;;4983137;28;20510;-58
2021/07/28 02:36:31;;;;;;;8.40;7.00;;;22.00;89.80;;;;;;4982080;28;20330;-58
2021/07/28 02:38:57;;;;;;;10.32;6.68;;;22.00;89.80;;;;;;4980168;28;20202;-58
2021/07/28 02:41:22;;;;;;;12.20;6.93;;;22.00;89.90;;;;;;4983731;28;20080;-58
2021/07/28 02:43:48;;;;;;;8.57;6.70;;;22.00;89.90;;;;;;4983069;28;20337;-58
2021/07/28 02:46:13;;;;;;;11.85;6.70;;;22.00;90.00;;;;;;4981397;28;20473;-58
2021/07/28 02:48:39;;;;;;;10.10;6.22;;;22.00;90.00;;;;;;4982416;28;20041;-58
2021/07/28 02:51:04;;;;;;;8.00;6.45;;;21.90;90.00;;;;;;4980095;28;20045;-58
2021/07/28 02:53:30;;;;;;;9.43;6.38;;;21.90;90.10;;;;;;4983023;28;20146;-58
2021/07/28 02:55:55;;;;;;;6.32;5.57;;;21.90;90.10;;;;;;4983291;28;20596;-58
2021/07/28 02:58:21;;;;;;;8.32;5.38;;;21.90;90.10;;;;;;4982940;28;20088;-58
2021/07/28 03:00:47;;;;;;;8.35;6.15;;;21.90;90.10;;;;;;4981186;28;20030;-58
2021/07/28 03:03:12;;;;;;;8.07;5.97;;;21.90;90.40;;;;;;4982069;28;20694;-59
2021/07/28 03:05:38;;;;;;;8.13;5.63;;;21.90;90.20;;;;;;4982815;28;20390;-58
2021/07/28 03:08:04;;;;;;;8.52;5.90;;;21.90;90.20;;;;;;4982585;28;20034;-58
2021/07/28 03:10:29;;;;;;;7.03;6.20;;;21.90;90.30;;;;;;4983342;28;20475;-58
2021/07/28 03:12:55;;;;;;;8.80;5.97;;;21.80;90.30;;;;;;4983240;28;20106;-58
2021/07/28 03:15:20;;;;;;;6.20;5.60;;;21.80;90.30;;;;;;4980663;28;20053;-58
2021/07/28 03:17:46;;;;;;;7.50;5.90;;;21.80;90.40;;;;;;4983282;28;20073;-58
2021/07/28 03:20:12;;;;;;;8.27;5.38;;;21.70;90.40;;;;;;4983328;28;20038;-58
2021/07/28 03:22:37;;;;;;;10.82;6.00;;;21.90;90.40;;;;;;4983189;28;20034;-58
2021/07/28 03:25:03;;;;;;;7.00;5.55;;;21.70;90.40;;;;;;4983010;28;20046;-58
2021/07/28 03:27:28;;;;;;;6.93;5.30;;;21.70;90.40;;;;;;4981363;28;20030;-58
2021/07/28 03:29:54;;;;;;;5.18;4.68;;;21.70;90.40;;;;;;4982784;28;20371;-58
2021/07/28 03:32:19;;;;;;;6.20;5.22;;;21.70;90.40;;;;;;4982546;28;20486;-58
2021/07/28 03:34:45;;;;;;;6.82;5.43;;;21.60;90.40;;;;;;4987251;28;20057;-59
2021/07/28 03:37:10;;;;;;;7.82;5.20;;;21.60;90.40;;;;;;4984792;28;20548;-57
2021/07/28 03:39:36;;;;;;;11.85;5.20;;;21.60;90.40;;;;;;4983873;28;20502;-58
2021/07/28 03:42:01;;;;;;;6.82;4.72;;;21.60;90.40;;;;;;4984726;28;20443;-58
2021/07/28 03:44:27;;;;;;;7.00;4.93;;;21.60;90.50;;;;;;4986873;28;20049;-58
2021/07/28 03:46:52;;;;;;;10.82;5.60;;;21.50;90.40;;;;;;4986463;28;20105;-58
2021/07/28 03:49:18;;;;;;;6.05;5.40;;;21.50;90.40;;;;;;4987204;28;20069;-58
2021/07/28 03:51:44;;;;;;;5.03;4.53;;;21.50;90.40;;;;;;4984797;28;20029;-57
2021/07/28 03:54:09;;;;;;;6.35;4.95;;;21.60;90.40;;;;;;4985965;28;20072;-58
2021/07/28 03:56:35;;;;;;;7.07;5.00;;;21.50;90.30;;;;;;4984644;28;20137;-58
2021/07/28 03:59:00;;;;;;;7.47;5.03;;;21.50;90.30;;;;;;4987169;28;20477;-58
2021/07/28 04:01:26;;;;;;;4.93;4.40;;;21.50;90.30;;;;;;4986539;28;20026;-58
2021/07/28 04:03:52;;;;;;;6.55;4.55;;;21.50;90.30;;;;;;4986247;28;20038;-58
2021/07/28 04:06:18;;;;;;;5.68;4.85;;;21.50;90.30;;;;;;4983212;28;20026;-58
2021/07/28 04:08:43;;;;;;;5.38;4.60;;;21.50;90.30;;;;;;4984889;28;20036;-58
2021/07/28 04:11:09;;;;;;;5.55;5.05;;;21.50;90.40;;;;;;4986923;28;20438;-57
2021/07/28 04:13:34;;;;;;;6.95;4.68;;;21.50;90.40;;;;;;4986551;28;20057;-58
2021/07/28 04:16:00;;;;;;;8.63;4.80;;;21.50;90.40;;;;;;4984669;28;20222;-58
2021/07/28 04:18:25;;;;;;;5.07;4.53;;;21.40;90.40;;;;;;4984956;28;20034;-58
2021/07/28 04:20:51;;;;;;;8.27;4.80;;;21.40;90.50;;;;;;4986114;28;20549;-57
2021/07/28 04:23:16;;;;;;;4.85;4.45;;;21.40;90.50;;;;;;4986588;28;20037;-58
2021/07/28 04:25:42;;;;;;;5.55;4.82;;;21.40;90.50;;;;;;4984422;28;20482;-58
2021/07/28 04:28:08;;;;;;;5.78;4.70;;;21.40;90.50;;;;;;4984392;28;20382;-58
2021/07/28 04:30:33;;;;;;;6.57;4.82;;;21.40;90.50;;;;;;4985512;28;20034;-58
2021/07/28 04:32:59;;;;;;;5.22;4.70;;;21.40;90.50;;;;;;4986257;28;20038;-58
2021/07/28 04:35:25;;;;;;;5.28;4.78;;;21.40;90.50;;;;;;4986148;28;20076;-58
2021/07/28 04:37:50;;;;;;;5.13;4.63;;;21.40;90.50;;;;;;4985034;28;20061;-58
2021/07/28 04:40:16;;;;;;;5.38;4.55;;;21.40;90.50;;;;;;4986115;28;20073;-58
2021/07/28 04:42:42;;;;;;;6.45;4.72;;;21.40;90.60;;;;;;4975801;28;20030;-58
2021/07/28 04:45:08;;;;;;;5.47;4.20;;;21.40;90.50;;;;;;4985026;28;20077;-57
2021/07/28 04:47:33;;;;;;;5.13;4.63;;;21.30;90.50;;;;;;4984420;28;20367;-58
2021/07/28 04:49:59;;;;;;;6.20;4.45;;;21.30;90.50;;;;;;4986046;28;20502;-58
2021/07/28 04:52:25;;;;;;;5.10;4.43;;;21.40;90.50;;;;;;4985757;28;20060;-58
2021/07/28 04:54:54;;;;;;;6.97;4.78;;;21.30;90.50;;;;;;4985441;28;20029;-58
2021/07/28 04:57:19;;;;;;;5.68;5.03;;;21.30;90.50;;;;;;4982862;28;20447;-59
2021/07/28 04:59:45;;;;;;;4.85;4.35;;;21.30;90.60;;;;;;4986129;28;21221;-58
2021/07/28 05:02:10;;;;;;;4.70;4.22;;;21.30;90.60;;;;;;4985549;28;20479;-58
2021/07/28 05:04:36;;;;;;;5.32;4.53;;;21.30;90.60;;;;;;4983455;28;20561;-58
2021/07/28 05:07:02;;;;;;;5.15;4.63;;;21.30;90.60;;;;;;4985156;28;20556;-58
2021/07/28 05:09:27;;;;;;;5.57;4.90;;;21.30;90.70;;;;;;4986284;28;20730;-58
2021/07/28 05:11:53;;;;;;;9.02;4.72;;;21.30;90.70;;;;;;4985883;28;20529;-58
2021/07/28 05:14:18;;;;;;;5.45;4.90;;;21.20;90.70;;;;;;4985265;28;20421;-58
2021/07/28 05:16:44;;;;;;;5.38;4.88;;;21.20;90.70;;;;;;4984324;28;20493;-58
2021/07/28 05:19:09;;;;;;;5.97;4.72;;;21.30;90.80;;;;;;4985695;28;20034;-59
2021/07/28 05:21:35;;;;;;;7.13;4.70;;;21.20;90.80;;;;;;4984121;28;20058;-58
2021/07/28 05:24:00;;;;;;;5.47;4.55;;;21.20;90.80;;;;;;4984930;28;20065;-58
2021/07/28 05:26:26;;;;;;;4.72;4.20;;;21.20;90.80;;;;;;4982795;28;20050;-58
2021/07/28 05:28:51;;;;;;;5.15;4.68;;;21.20;90.80;;;;;;4985316;28;20034;-58
2021/07/28 05:31:17;;;;;;;5.07;4.68;;;21.20;90.80;;;;;;4985151;28;20054;-58
2021/07/28 05:33:42;;;;;;;5.28;4.75;;;21.20;90.80;;;;;;4978115;28;20525;-59
2021/07/28 05:36:09;;;;;;;6.35;4.70;;;21.20;90.80;;;;;;4977635;28;20046;-58
2021/07/28 05:38:34;;;;;;;4.80;4.30;;;21.20;90.80;;;;;;4983536;28;20421;-58
2021/07/28 05:41:04;;;;;;;5.72;4.85;;;21.20;90.70;;;;;;4983562;28;20041;-58
2021/07/28 05:43:30;;;;;;;6.30;4.68;;;21.20;90.70;;;;;;4982983;28;20112;-58
2021/07/28 05:45:55;;;;;;;6.25;4.80;;;21.20;90.80;;;;;;4981979;28;20471;-58
2021/07/28 05:48:21;;;;;;;6.85;4.63;;;21.10;90.80;;;;;;4982347;28;20041;-58
2021/07/28 05:50:46;;;;;;;6.35;4.75;;;21.10;90.80;;;;;;4982314;28;20050;-58
2021/07/28 05:53:12;;;;;;;5.43;4.93;;;21.10;90.90;;;;;;4982773;28;20030;-61
2021/07/28 05:55:37;;;;;;;5.78;4.95;;;21.10;90.90;;;;;;4981487;28;20042;-61
2021/07/28 05:58:03;;;;;;;4.65;4.25;;;21.10;91.00;;;;;;4984322;28;20061;-60
2021/07/28 06:00:29;;;;;;;6.03;4.53;;;21.00;91.00;;;;;;4982595;28;20121;-60
2021/07/28 06:02:54;;;;;;;6.40;4.65;;;21.00;90.90;;;;;;4983244;28;20038;-60
2021/07/28 06:05:20;;;;;;;5.65;5.00;;;21.00;90.90;;;;;;4983111;28;20073;-61
2021/07/28 06:07:46;;;;;;;8.93;5.28;;;21.10;90.90;;;;;;4997810;28;20109;-60
2021/07/28 06:10:12;;;;;;;6.55;4.65;;;21.00;90.90;;;;;;4982665;28;20034;-60
2021/07/28 06:12:38;;;;;;;9.48;5.00;;;21.00;90.90;;;;;;4981329;28;20115;-61
2021/07/28 06:15:04;;;;;;;5.88;4.90;;;21.10;90.90;;;;;;4980739;28;20121;-61
2021/07/28 06:17:29;;;;;;;6.30;4.95;;;21.00;90.90;;;;;;4984424;28;20433;-60
2021/07/28 06:19:55;;;;;;;8.65;5.65;;;21.00;91.00;;;;;;4983084;28;20070;-61
2021/07/28 06:22:20;;;;;;;10.38;5.60;;;21.00;91.00;;;;;;4983778;28;20034;-60
2021/07/28 06:24:46;;;;;;;20.67;5.57;;;21.00;91.00;;;;;;4981583;28;20397;-60
2021/07/28 06:27:11;;;;;;;15.73;5.22;;;21.00;91.20;;;;;;4982165;28;20161;-59
2021/07/28 06:29:37;;;;;;;15.13;5.65;;;21.00;91.20;;;;;;4952117;28;20433;-61
2021/07/28 06:32:03;;;;;;;16.38;5.68;;;21.00;91.20;;;;;;4979594;28;20495;-60
2021/07/28 06:34:28;;;;;;;19.02;6.07;;;21.00;91.20;;;;;;4981946;28;20030;-60
2021/07/28 06:36:54;;;;;;;16.20;5.53;;;21.00;91.20;;;;;;4964240;28;20070;-59
2021/07/28 06:39:19;;;;;;;27.45;6.22;;;21.00;91.20;;;;;;4980396;28;20050;-60
2021/07/28 06:41:45;;;;;;;22.27;7.28;;;21.00;91.20;;;;;;4980337;28;20057;-60
2021/07/28 06:44:10;;;;;;;22.25;6.60;;;21.00;91.20;;;;;;4980249;28;20117;-61
2021/07/28 06:46:36;;;;;;;26.13;6.35;;;21.00;91.10;;;;;;4982148;28;20235;-60
2021/07/28 06:49:01;;;;;;;25.70;7.25;;;21.00;91.10;;;;;;4983150;28;20100;-60
2021/07/28 06:51:29;;;;;;;25.92;6.95;;;21.00;91.10;;;;;;4982281;28;20050;-61
2021/07/28 06:53:55;;;;;;;28.58;6.45;;;21.00;91.10;;;;;;4964475;28;20053;-60
2021/07/28 06:56:20;;;;;;;24.15;7.05;;;21.00;91.10;;;;;;4981995;28;20390;-60
2021/07/28 06:58:46;;;;;;;27.20;7.82;;;21.00;91.10;;;;;;4983010;28;20117;-59
2021/07/28 07:01:11;;;;;;;21.27;6.70;;;21.00;91.20;;;;;;4983286;28;20050;-60
2021/07/28 07:03:37;;;;;;;25.17;7.43;;;21.00;91.20;;;;;;4982577;28;20030;-60
2021/07/28 07:06:03;;;;;;;27.67;8.02;;;20.90;91.30;;;;;;4979736;28;20081;-60
2021/07/28 07:08:29;;;;;;;34.25;7.97;;;20.90;91.40;;;;;;4980791;28;20462;-60
2021/07/28 07:10:54;;;;;;;31.10;8.85;;;21.00;91.50;;;;;;4979772;28;20053;-60
2021/07/28 07:13:20;;;;;;;33.40;8.27;;;21.00;91.60;;;;;;4982897;28;20100;-60
2021/07/28 07:15:45;;;;;;;37.97;8.27;;;20.90;91.70;;;;;;4961490;28;20038;-60
2021/07/28 07:18:11;;;;;;;36.05;8.73;;;20.90;91.80;;;;;;4978845;28;20121;-60
2021/07/28 07:20:37;;;;;;;41.50;8.77;;;20.90;91.80;;;;;;4980795;28;20065;-60
2021/07/28 07:23:02;;;;;;;36.58;8.30;;;20.90;91.80;;;;;;4979829;28;20041;-60
2021/07/28 07:25:28;;;;;;;39.50;8.60;;;20.90;91.70;;;;;;4980528;28;20042;-60
2021/07/28 07:27:53;;;;;;;35.97;8.95;;;20.90;91.80;;;;;;4980177;28;20033;-59
2021/07/28 07:30:19;;;;;;;61.60;9.60;;;20.90;91.70;;;;;;4980551;28;20034;-60
2021/07/28 07:32:45;;;;;;;63.97;12.15;;;20.90;91.90;;;;;;4976328;28;20047;-61
2021/07/28 07:35:11;;;;;;;83.63;10.63;;;20.90;92.10;;;;;;4979225;28;20054;-60
2021/07/28 07:37:36;;;;;;;65.72;10.88;;;20.90;92.10;;;;;;4980576;28;20799;-61
2021/07/28 07:40:03;;;;;;;134.45;16.20;;;20.90;92.20;;;;;;4980998;28;20084;-60
2021/07/28 07:42:28;;;;;;;73.45;10.80;;;20.90;92.20;;;;;;4980153;28;20117;-60
2021/07/28 07:44:57;;;;;;;50.45;10.30;;;20.90;92.30;;;;;;4980578;28;20409;-61
2021/07/28 07:47:22;;;;;;;64.93;10.95;;;20.90;92.30;;;;;;4978229;28;20050;-60
2021/07/28 07:49:48;;;;;;;58.85;11.63;;;20.90;92.40;;;;;;4979931;28;20042;-60
2021/07/28 07:52:13;;;;;;;56.15;10.80;;;20.90;92.50;;;;;;4977851;28;20140;-60
2021/07/28 07:54:39;;;;;;;64.45;9.88;;;20.90;92.40;;;;;;4981836;28;20041;-61
2021/07/28 07:57:04;;;;;;;45.85;9.23;;;20.90;92.70;;;;;;4980052;28;20072;-60
2021/07/28 07:59:30;;;;;;;47.63;9.82;;;20.90;92.30;;;;;;4977810;28;20554;-61
2021/07/28 08:01:56;;;;;;;64.40;9.98;;;20.90;92.20;;;;;;4979819;28;20046;-60
2021/07/28 08:04:23;;;;;;;50.30;9.23;;;20.90;92.20;;;;;;4979279;28;20157;-61
2021/07/28 08:06:49;;;;;;;55.20;9.60;;;20.90;92.10;;;;;;4978808;28;20342;-62
2021/07/28 08:09:15;;;;;;;43.78;9.05;;;20.90;92.10;;;;;;4976059;28;20035;-61
2021/07/28 08:11:41;;;;;;;36.40;8.57;;;20.90;92.30;;;;;;4973641;28;20042;-60
2021/07/28 08:14:06;;;;;;;43.03;8.32;;;20.90;92.40;;;;;;4977734;28;20529;-60
2021/07/28 08:16:32;;;;;;;41.63;10.02;;;20.90;92.50;;;;;;4975180;28;20030;-60
2021/07/28 08:18:58;;;;;;;46.22;8.65;;;21.00;92.50;;;;;;4980797;28;20442;-60
2021/07/28 08:21:23;;;;;;;45.13;8.70;;;20.90;92.50;;;;;;4982523;28;20044;-60
2021/07/28 08:23:49;;;;;;;42.80;9.55;;;20.90;92.60;;;;;;4981967;28;20042;-60
2021/07/28 08:26:15;;;;;;;33.08;9.02;;;21.00;92.60;;;;;;4981641;28;20100;-61
2021/07/28 08:28:41;;;;;;;41.38;7.93;;;20.90;92.60;;;;;;4981598;28;20022;-60
2021/07/28 08:31:07;;;;;;;51.13;9.52;;;20.90;92.80;;;;;;4981761;28;20034;-61
2021/07/28 08:33:32;;;;;;;40.00;8.45;;;20.90;92.90;;;;;;4978809;28;20049;-61
2021/07/28 08:35:58;;;;;;;37.70;8.35;;;21.00;93.00;;;;;;4982264;28;20106;-60
2021/07/28 08:38:25;;;;;;;32.47;7.22;;;21.00;93.00;;;;;;4961841;28;20054;-61
2021/07/28 08:40:55;;;;;;;34.80;8.27;;;21.00;93.00;;;;;;4972350;28;20038;-62
2021/07/28 08:43:25;;;;;;;32.13;8.65;;;21.00;92.90;;;;;;4993702;28;20490;-60
2021/07/28 08:45:51;;;;;;;46.78;8.40;;;21.00;93.10;;;;;;4978518;28;20030;-60
2021/07/28 08:48:17;;;;;;;28.80;7.43;;;21.00;93.10;;;;;;4996278;28;20038;-60
2021/07/28 08:50:47;;;;;;;25.55;7.32;;;21.00;93.10;;;;;;4980386;28;20030;-61
2021/07/28 08:53:12;;;;;;;38.90;8.25;;;21.00;93.20;;;;;;4978414;28;20110;-60
2021/07/28 08:55:38;;;;;;;54.78;10.05;;;20.90;93.30;;;;;;4980713;28;20112;-61
2021/07/28 08:58:04;;;;;;;59.25;9.40;;;21.00;93.40;;;;;;4962818;28;20042;-60
2021/07/28 09:00:39;;;;;;;76.85;10.35;;;21.00;93.30;;;;;;4962987;28;20033;-59
2021/07/28 09:03:05;;;;;;;65.95;9.38;;;21.00;93.40;;;;;;4977602;28;20026;-58
2021/07/28 09:05:44;;;;;;;54.50;10.40;;;21.00;93.30;;;;;;4980355;28;20054;-57
2021/07/28 09:08:29;;;;;;;52.30;10.73;;;21.00;93.30;;;;;;4965581;28;20106;-58
2021/07/28 09:10:59;;;;;;;49.50;9.67;;;21.00;93.50;;;;;;4978697;28;20027;-58
2021/07/28 09:13:34;;;;;;;61.25;9.60;;;21.00;93.50;;;;;;4976885;28;20041;-57
2021/07/28 09:16:07;;;;;;;62.55;11.20;;;21.00;93.40;;;;;;4977180;28;20034;-59
2021/07/28 09:18:35;;;;;;;53.67;10.48;;;21.00;93.40;;;;;;4978853;28;20370;-58
2021/07/28 09:21:02;;;;;;;55.53;10.88;;;21.00;93.20;;;;;;4978671;28;20026;-60
2021/07/28 09:23:38;;;;;;;81.38;12.23;;;21.00;93.10;;;;;;4980504;28;20450;-60
2021/07/28 09:26:05;;;;;;;77.80;10.80;;;21.10;93.20;;;;;;4978784;28;20030;-59
2021/07/28 09:28:31;;;;;;;61.08;10.45;;;21.10;93.20;;;;;;4978775;28;20658;-61
2021/07/28 09:30:58;;;;;;;75.00;11.32;;;21.00;93.30;;;;;;4976544;28;20119;-60
2021/07/28 09:33:23;;;;;;;64.35;11.45;;;21.10;93.20;;;;;;4980065;28;20193;-60
2021/07/28 09:35:55;;;;;;;77.07;11.90;;;21.20;93.00;;;;;;4980532;28;20109;-60
2021/07/28 09:38:36;;;;;;;54.70;10.20;;;21.10;92.90;;;;;;4980605;28;20034;-60
2021/07/28 09:41:17;;;;;;;66.65;10.80;;;21.20;92.90;;;;;;4976656;28;20129;-60
2021/07/28 09:43:44;;;;;;;114.55;14.82;;;21.20;92.90;;;;;;4977905;28;20173;-60
2021/07/28 09:46:38;;;;;;;66.32;10.93;;;21.20;92.90;;;;;;4977911;28;20042;-60
2021/07/28 09:49:05;;;;;;;74.85;11.13;;;21.20;93.00;;;;;;4977659;28;20101;-60
2021/07/28 09:51:33;;;;;;;57.28;10.77;;;21.20;93.20;;;;;;4976491;28;20150;-60
2021/07/28 09:54:03;;;;;;;112.07;13.88;;;21.20;93.00;;;;;;4979681;28;20034;-60
2021/07/28 09:56:32;;;;;;;80.18;13.57;;;21.20;93.10;;;;;;4975013;28;20082;-60
2021/07/28 09:58:58;;;;;;;82.05;12.98;;;21.20;93.40;;;;;;4979169;28;20802;-60
2021/07/28 10:01:24;;;;;;;69.53;12.13;;;21.20;93.10;;;;;;4977879;28;20821;-60
2021/07/28 10:03:50;;;;;;;94.95;14.85;;;21.20;93.20;;;;;;4976485;28;20121;-60
2021/07/28 10:06:16;;;;;;;164.27;17.75;;;21.20;93.10;;;;;;4979605;28;20125;-61
2021/07/28 10:08:41;;;;;;;136.65;17.08;;;21.30;93.30;;;;;;4976403;28;20081;-60
2021/07/28 10:11:07;;;;;;;115.78;13.77;;;21.20;93.20;;;;;;4978758;28;20030;-60
2021/07/28 10:13:32;;;;;;;134.43;15.35;;;21.20;93.20;;;;;;4974520;28;20033;-60
2021/07/28 10:15:58;;;;;;;111.55;13.50;;;21.30;93.10;;;;;;4958254;28;20523;-60
2021/07/28 10:18:23;;;;;;;100.55;12.70;;;21.20;93.00;;;;;;4978190;28;20295;-60
2021/07/28 10:20:49;;;;;;;105.90;13.27;;;21.30;93.20;;;;;;4978998;28;20052;-60
2021/07/28 10:23:15;;;;;;;73.00;11.40;;;21.30;93.20;;;;;;4977849;28;20568;-60
2021/07/28 10:25:40;;;;;;;91.50;13.70;;;21.30;93.20;;;;;;4961071;28;20540;-60
2021/07/28 10:28:06;;;;;;;90.43;12.27;;;21.30;93.10;;;;;;4977442;28;20038;-59
2021/07/28 10:30:31;;;;;;;94.65;14.18;;;21.30;93.30;;;;;;4980031;28;20066;-60
2021/07/28 10:32:57;;;;;;;83.15;12.80;;;21.40;92.90;;;;;;4963447;28;20037;-59
2021/07/28 10:35:24;;;;;;;86.80;12.68;;;21.40;92.80;;;;;;4976989;28;20165;-60
2021/07/28 10:37:51;;;;;;;100.72;12.50;;;21.40;92.80;;;;;;4976867;28;20038;-60
2021/07/28 10:40:32;;;;;;;89.07;12.35;;;21.50;92.70;;;;;;4979158;28;20030;-60
2021/07/28 10:43:00;;;;;;;79.47;11.40;;;21.50;92.90;;;;;;4978368;28;20030;-60
2021/07/28 10:45:26;;;;;;;94.05;12.13;;;21.50;93.10;;;;;;4980516;28;20041;-60
2021/07/28 10:47:52;;;;;;;94.80;12.30;;;21.60;93.10;;;;;;4977310;28;20023;-60
2021/07/28 10:52:53;;;;;;;93.35;12.80;;;21.60;92.90;;;;;;4978496;28;20030;-60
2021/07/28 10:55:23;;;;;;;120.50;13.90;;;21.70;92.80;;;;;;4976885;28;20054;-60
2021/07/28 10:57:51;;;;;;;114.78;13.77;;;21.70;92.60;;;;;;4994021;28;20034;-60
2021/07/28 11:00:35;;;;;;;115.50;13.70;;;21.70;92.60;;;;;;4978063;28;20057;-60
2021/07/28 11:03:01;;;;;;;114.85;13.90;;;21.70;92.80;;;;;;4977659;28;20050;-60
2021/07/28 11:05:30;;;;;;;105.97;11.90;;;21.70;92.80;;;;;;4977650;28;20054;-61
2021/07/28 11:07:58;;;;;;;97.57;14.05;;;21.80;92.70;;;;;;4980569;28;20634;-60
2021/07/28 11:10:25;;;;;;;132.63;15.60;;;21.80;92.70;;;;;;4978997;28;20477;-59
2021/07/28 11:12:51;;;;;;;135.15;15.15;;;21.60;92.40;;;;;;4977242;28;20030;-60
2021/07/28 11:15:18;;;;;;;108.20;14.68;;;21.80;92.60;;;;;;4976801;28;20046;-60
2021/07/28 11:17:43;;;;;;;98.90;13.15;;;21.80;92.40;;;;;;4979538;28;20072;-60
2021/07/28 11:20:38;;;;;;;135.25;15.48;;;21.80;92.20;;;;;;4978269;28;20082;-60
2021/07/28 11:23:27;;;;;;;111.35;13.73;;;21.80;92.00;;;;;;4978238;28;20141;-59
2021/07/28 11:25:56;;;;;;;91.32;12.85;;;21.80;91.90;;;;;;4978502;28;20042;-58
2021/07/28 11:28:22;;;;;;;91.07;12.93;;;21.80;92.00;;;;;;4975221;28;20066;-59
2021/07/28 11:30:54;;;;;;;88.82;11.35;;;21.80;91.90;;;;;;4976768;28;20069;-59
2021/07/28 11:33:20;;;;;;;92.28;10.90;;;21.80;91.80;;;;;;4977173;28;20145;-59
2021/07/28 11:35:47;;;;;;;98.35;10.70;;;21.80;91.50;;;;;;4975652;28;20113;-59
2021/07/28 11:38:16;;;;;;;84.75;11.45;;;21.80;91.40;;;;;;4979942;28;20534;-58
2021/07/28 11:41:01;;;;;;;93.97;11.25;;;21.80;91.30;;;;;;4976479;28;20509;-58
2021/07/28 11:43:31;;;;;;;71.55;9.93;;;21.80;91.30;;;;;;4978691;28;20109;-59
2021/07/28 11:46:00;;;;;;;79.53;11.07;;;21.80;91.20;;;;;;4977398;28;20042;-59
2021/07/28 11:48:31;;;;;;;89.22;12.73;;;21.90;91.50;;;;;;4977544;28;20116;-59
2021/07/28 11:50:56;;;;;;;112.25;12.65;;;21.90;91.20;;;;;;4993095;28;20030;-59
2021/07/28 11:53:25;;;;;;;93.47;12.98;;;22.00;91.10;;;;;;4972021;28;20041;-58
2021/07/28 11:55:54;;;;;;;101.82;12.73;;;22.00;91.20;;;;;;4977320;28;20878;-58
2021/07/28 11:58:21;;;;;;;161.60;15.50;;;22.00;91.20;;;;;;4981006;28;20430;-58
2021/07/28 12:00:48;;;;;;;124.25;14.77;;;22.00;91.10;;;;;;4983001;28;20344;-58
2021/07/28 12:03:24;;;;;;;109.25;14.60;;;22.10;91.10;;;;;;4980194;28;20038;-59
2021/07/28 12:06:05;;;;;;;117.85;13.07;;;22.10;91.00;;;;;;4980160;28;20042;-59
2021/07/28 12:08:35;;;;;;;119.32;14.80;;;22.20;90.90;;;;;;4980103;28;20144;-58
2021/07/28 12:11:10;;;;;;;136.48;13.82;;;22.20;90.90;;;;;;4978353;28;20027;-59
2021/07/28 12:13:43;;;;;;;108.43;14.20;;;22.30;90.80;;;;;;4966546;28;20035;-59
2021/07/28 12:16:09;;;;;;;139.50;14.95;;;22.30;90.70;;;;;;4981400;28;20030;-58
2021/07/28 12:18:49;;;;;;;100.32;14.20;;;22.30;90.70;;;;;;4984014;28;20023;-59
2021/07/28 12:21:15;;;;;;;129.25;14.85;;;22.30;90.70;;;;;;4972844;28;20124;-59
2021/07/28 12:23:53;;;;;;;117.13;14.35;;;22.30;90.70;;;;;;4978667;28;20471;-59
2021/07/28 12:26:45;;;;;;;136.48;15.75;;;22.30;90.60;;;;;;4962856;28;20188;-58
2021/07/28 12:29:10;;;;;;;129.10;16.05;;;22.40;90.90;;;;;;4978855;28;20070;-59
2021/07/28 12:31:36;;;;;;;166.68;18.48;;;22.40;90.60;;;;;;4979441;28;20034;-59
2021/07/28 12:34:20;;;;;;;117.25;14.93;;;22.40;90.60;;;;;;4979391;28;20058;-59
2021/07/28 12:36:46;;;;;;;94.43;14.13;;;22.40;90.60;;;;;;4964599;28;20030;-59
2021/07/28 12:39:11;;;;;;;142.85;18.13;;;22.40;90.60;;;;;;4980674;28;20057;-58
2021/07/28 12:41:37;;;;;;;124.53;17.08;;;22.40;90.50;;;;;;4981359;28;20041;-58